createdAt,value
2019-03-09T00:01:14.253Z,95299.34
2019-03-09T00:03:43.814Z,95296.78
2019-03-09T00:06:13.667Z,95299.13
2019-03-09T00:08:43.187Z,95291.53
2019-03-09T00:11:12.691Z,95294.16
2019-03-09T00:13:42.190Z,95292.31
2019-03-09T00:16:11.684Z,95293.22
2019-03-09T00:18:41.143Z,95291.37
2019-03-09T00:21:10.645Z,95287.22
2019-03-09T00:23:57.797Z,95286.16
2019-03-09T00:26:55.534Z,95279.72
2019-03-09T00:29:38.709Z,95274.78
2019-03-09T00:32:11.026Z,95271.12
2019-03-09T00:34:40.758Z,95273.47
2019-03-09T00:37:10.255Z,95272.61
2019-03-09T00:39:39.683Z,95282.09
2019-03-09T00:42:09.185Z,95291.10
2019-03-09T00:44:38.674Z,95290.74
2019-03-09T00:47:08.429Z,95290.62
2019-03-09T00:49:37.913Z,95286.73
2019-03-09T00:52:07.441Z,95285.14
2019-03-09T00:54:36.954Z,95284.50
2019-03-09T00:57:06.447Z,95286.00
2019-03-09T00:59:35.925Z,95282.06
2019-03-09T01:02:05.367Z,95278.95
2019-03-09T01:04:34.861Z,95277.64
2019-03-09T01:07:04.341Z,95276.95
2019-03-09T01:09:33.806Z,95277.01
2019-03-09T01:12:03.317Z,95286.86
2019-03-09T01:14:32.919Z,95281.30
2019-03-09T01:17:02.410Z,95279.89
2019-03-09T01:19:31.884Z,95275.20
2019-03-09T01:22:01.365Z,95274.33
2019-03-09T01:24:30.828Z,95269.01
2019-03-09T01:27:00.346Z,95278.27
2019-03-09T01:29:29.798Z,95277.41
2019-03-09T01:31:59.284Z,95287.36
2019-03-09T01:34:28.764Z,95293.37
2019-03-09T01:36:58.230Z,95288.75
2019-03-09T01:39:27.829Z,95284.92
2019-03-09T01:41:57.369Z,95284.24
2019-03-09T01:44:26.850Z,95288.17
2019-03-09T01:46:56.350Z,95284.06
2019-03-09T01:49:25.935Z,95295.81
2019-03-09T01:51:55.429Z,95288.80
2019-03-09T01:54:24.917Z,95294.86
2019-03-09T01:56:54.424Z,95288.76
2019-03-09T01:59:23.899Z,95282.38
2019-03-09T02:01:53.422Z,95284.42
2019-03-09T02:04:22.952Z,95286.50
2019-03-09T02:06:52.407Z,95286.62
2019-03-09T02:09:21.945Z,95288.36
2019-03-09T02:11:51.457Z,95293.47
2019-03-09T02:14:20.920Z,95294.91
2019-03-09T02:16:50.511Z,95291.75
2019-03-09T02:19:20.023Z,95295.81
2019-03-09T02:21:49.537Z,95302.37
2019-03-09T02:24:19.085Z,95300.29
2019-03-09T02:26:48.597Z,95306.66
2019-03-09T02:29:18.091Z,95299.43
2019-03-09T02:31:47.593Z,95287.68
2019-03-09T02:34:17.052Z,95300.42
2019-03-09T02:36:46.557Z,95296.63
2019-03-09T02:39:37.846Z,95303.17
2019-03-09T02:42:07.325Z,95298.61
2019-03-09T02:44:38.589Z,95293.19
2019-03-09T02:47:08.107Z,95291.06
2019-03-09T02:49:37.615Z,95292.19
2019-03-09T02:52:07.239Z,95300.98
2019-03-09T02:54:36.750Z,95310.97
2019-03-09T02:57:06.240Z,95307.04
2019-03-09T02:59:35.692Z,95319.83
2019-03-09T03:02:22.808Z,95314.31
2019-03-09T03:04:52.233Z,95314.91
2019-03-09T03:07:21.727Z,95320.25
2019-03-09T03:09:51.241Z,95319.39
2019-03-09T03:12:20.667Z,95327.89
2019-03-09T03:14:50.230Z,95329.05
2019-03-09T03:17:19.731Z,95332.62
2019-03-09T03:19:49.184Z,95338.35
2019-03-09T03:22:18.672Z,95340.97
2019-03-09T03:24:48.194Z,95340.41
2019-03-09T03:27:17.676Z,95348.14
2019-03-09T03:29:47.158Z,95344.63
2019-03-09T03:32:16.735Z,95340.95
2019-03-09T03:34:46.232Z,95338.61
2019-03-09T03:37:15.689Z,95345.38
2019-03-09T03:39:45.180Z,95340.25
2019-03-09T03:42:14.636Z,95338.94
2019-03-09T03:44:47.174Z,95337.67
2019-03-09T03:47:17.592Z,95340.25
2019-03-09T03:49:47.098Z,95336.58
2019-03-09T03:52:16.661Z,95336.36
2019-03-09T03:54:46.176Z,95339.97
2019-03-09T03:57:15.650Z,95351.50
2019-03-09T03:59:45.151Z,95351.61
2019-03-09T04:02:14.717Z,95348.98
2019-03-09T04:04:44.151Z,95348.17
2019-03-09T04:07:14.166Z,95348.28
2019-03-09T04:09:43.833Z,95348.78
2019-03-09T04:12:13.664Z,95352.53
2019-03-09T04:14:43.231Z,95354.13
2019-03-09T04:17:12.738Z,95355.83
2019-03-09T04:19:42.254Z,95357.72
2019-03-09T04:22:11.804Z,95369.89
2019-03-09T04:24:41.392Z,95377.86
2019-03-09T04:27:10.868Z,95371.72
2019-03-09T04:29:40.424Z,95369.39
2019-03-09T04:32:09.934Z,95370.38
2019-03-09T04:34:39.487Z,95369.41
2019-03-09T04:37:08.977Z,95371.09
2019-03-09T04:39:38.489Z,95376.33
2019-03-09T04:42:07.975Z,95379.48
2019-03-09T04:44:37.460Z,95367.13
2019-03-09T04:47:06.938Z,95375.30
2019-03-09T04:49:36.437Z,95381.39
2019-03-09T04:52:05.933Z,95382.56
2019-03-09T04:54:35.370Z,95388.97
2019-03-09T04:57:04.872Z,95389.64
2019-03-09T04:59:34.378Z,95392.58
2019-03-09T05:02:03.906Z,95391.27
2019-03-09T05:05:03.814Z,95394.06
2019-03-09T05:07:54.711Z,95391.83
2019-03-09T05:10:28.014Z,95397.33
2019-03-09T05:13:00.785Z,95390.77
2019-03-09T05:15:30.231Z,95387.77
2019-03-09T05:17:59.722Z,95391.88
2019-03-09T05:20:29.252Z,95400.44
2019-03-09T05:22:58.789Z,95405.50
2019-03-09T05:25:28.288Z,95420.02
2019-03-09T05:27:57.847Z,95421.16
2019-03-09T05:30:55.292Z,95427.39
2019-03-09T05:33:24.773Z,95425.27
2019-03-09T05:35:54.249Z,95426.64
2019-03-09T05:38:23.743Z,95430.98
2019-03-09T05:40:53.241Z,95430.92
2019-03-09T05:43:22.735Z,95433.01
2019-03-09T05:45:52.213Z,95437.59
2019-03-09T05:48:21.702Z,95440.22
2019-03-09T05:50:51.192Z,95435.97
2019-03-09T05:53:22.348Z,95433.24
2019-03-09T05:55:51.959Z,95437.95
2019-03-09T05:58:21.454Z,95442.10
2019-03-09T06:00:50.911Z,95434.38
2019-03-09T06:03:20.384Z,95442.66
2019-03-09T06:06:13.089Z,95440.60
2019-03-09T06:08:42.892Z,95445.69
2019-03-09T06:11:12.376Z,95442.87
2019-03-09T06:13:41.933Z,95446.31
2019-03-09T06:16:11.446Z,95449.02
2019-03-09T06:18:40.966Z,95448.22
2019-03-09T06:21:10.512Z,95456.97
2019-03-09T06:23:40.011Z,95452.16
2019-03-09T06:26:09.529Z,95460.08
2019-03-09T06:28:39.084Z,95464.97
2019-03-09T06:31:08.806Z,95460.08
2019-03-09T06:33:39.281Z,95461.89
2019-03-09T06:36:35.995Z,95466.19
2019-03-09T06:39:17.078Z,95468.45
2019-03-09T06:42:07.798Z,95469.08
2019-03-09T06:44:37.293Z,95468.13
2019-03-09T06:47:06.769Z,95467.28
2019-03-09T06:49:36.268Z,95458.28
2019-03-09T06:52:05.752Z,95468.75
2019-03-09T06:54:35.243Z,95469.65
2019-03-09T06:57:13.463Z,95470.56
2019-03-09T06:59:36.009Z,95468.25
2019-03-09T07:02:05.593Z,95471.52
2019-03-09T07:04:35.092Z,95463.09
2019-03-09T07:07:04.638Z,95469.06
2019-03-09T07:09:34.134Z,95468.95
2019-03-09T07:12:03.663Z,95479.17
2019-03-09T07:15:16.323Z,95483.00
2019-03-09T07:17:45.840Z,95486.36
2019-03-09T07:20:15.461Z,95483.08
2019-03-09T07:22:44.997Z,95480.05
2019-03-09T07:25:14.575Z,95478.39
2019-03-09T07:27:44.107Z,95475.50
2019-03-09T07:30:18.033Z,95477.58
2019-03-09T07:32:47.566Z,95479.42
2019-03-09T07:35:17.048Z,95477.98
2019-03-09T07:37:46.561Z,95463.33
2019-03-09T07:40:16.371Z,95462.84
2019-03-09T07:42:45.878Z,95458.64
2019-03-09T07:45:15.672Z,95461.44
2019-03-09T07:47:45.493Z,95456.48
2019-03-09T07:50:15.170Z,95457.72
2019-03-09T07:52:44.660Z,95461.78
2019-03-09T07:55:15.035Z,95460.58
2019-03-09T07:57:44.547Z,95458.97
2019-03-09T08:00:18.594Z,95458.75
2019-03-09T08:02:48.154Z,95454.30
2019-03-09T08:05:17.953Z,95458.43
2019-03-09T08:07:47.495Z,95457.70
2019-03-09T08:10:21.932Z,95453.02
2019-03-09T08:12:51.415Z,95449.38
2019-03-09T08:15:22.363Z,95449.52
2019-03-09T08:17:51.881Z,95448.16
2019-03-09T08:20:25.851Z,95452.80
2019-03-09T08:22:58.140Z,95454.99
2019-03-09T08:25:28.724Z,95444.12
2019-03-09T08:27:58.255Z,95446.61
2019-03-09T08:30:27.935Z,95444.39
2019-03-09T08:32:57.842Z,95441.49
2019-03-09T08:35:27.299Z,95438.06
2019-03-09T08:37:56.820Z,95449.25
2019-03-09T08:40:26.320Z,95440.36
2019-03-09T08:42:55.871Z,95440.23
2019-03-09T08:45:25.381Z,95445.67
2019-03-09T08:47:54.862Z,95434.98
2019-03-09T08:50:24.411Z,95437.23
2019-03-09T08:52:53.895Z,95428.48
2019-03-09T08:55:23.421Z,95427.40
2019-03-09T08:57:52.930Z,95420.36
2019-03-09T09:00:29.915Z,95412.06
2019-03-09T09:02:58.917Z,95418.55
2019-03-09T09:05:28.380Z,95415.75
2019-03-09T09:07:57.891Z,95415.54
2019-03-09T09:10:27.416Z,95404.28
2019-03-09T09:12:56.876Z,95402.45
2019-03-09T09:15:29.122Z,95407.47
2019-03-09T09:17:58.664Z,95397.04
2019-03-09T09:20:28.204Z,95393.48
2019-03-09T09:22:57.714Z,95389.87
2019-03-09T09:25:27.222Z,95389.33
2019-03-09T09:27:56.834Z,95393.48
2019-03-09T09:30:27.441Z,95386.23
2019-03-09T09:32:57.095Z,95397.45
2019-03-09T09:35:27.067Z,95389.28
2019-03-09T09:37:56.517Z,95394.58
2019-03-09T09:40:26.181Z,95389.25
2019-03-09T09:42:55.767Z,95400.52
2019-03-09T09:45:25.643Z,95397.80
2019-03-09T09:47:55.126Z,95378.65
2019-03-09T09:50:24.650Z,95390.03
2019-03-09T09:52:54.219Z,95388.63
2019-03-09T09:55:23.800Z,95385.75
2019-03-09T09:57:53.365Z,95381.97
2019-03-09T10:00:24.644Z,95375.81
2019-03-09T10:02:54.171Z,95373.96
2019-03-09T10:05:23.770Z,95376.73
2019-03-09T10:07:53.278Z,95377.57
2019-03-09T10:10:22.901Z,95366.77
2019-03-09T10:12:52.708Z,95369.04
2019-03-09T10:15:24.175Z,95365.04
2019-03-09T10:17:53.703Z,95371.69
2019-03-09T10:20:23.239Z,95362.11
2019-03-09T10:23:03.100Z,95361.53
2019-03-09T10:25:24.007Z,95351.97
2019-03-09T10:27:53.630Z,95343.53
2019-03-09T10:30:23.165Z,95349.58
2019-03-09T10:32:52.859Z,95349.52
2019-03-09T10:35:22.394Z,95342.63
2019-03-09T10:37:51.905Z,95335.50
2019-03-09T10:40:21.634Z,95331.38
2019-03-09T10:42:51.115Z,95325.80
2019-03-09T10:45:20.640Z,95331.38
2019-03-09T10:47:50.242Z,95327.59
2019-03-09T10:50:19.988Z,95319.56
2019-03-09T10:52:49.718Z,95307.09
2019-03-09T10:55:25.410Z,95308.84
2019-03-09T10:57:54.957Z,95308.70
2019-03-09T11:00:27.141Z,95305.56
2019-03-09T11:02:58.591Z,95300.45
2019-03-09T11:05:31.199Z,95283.45
2019-03-09T11:08:02.112Z,95278.73
2019-03-09T11:10:31.586Z,95278.57
2019-03-09T11:13:01.296Z,95283.45
2019-03-09T11:15:30.896Z,95280.55
2019-03-09T11:18:00.499Z,95274.45
2019-03-09T11:20:32.832Z,95268.45
2019-03-09T11:23:02.658Z,95259.50
2019-03-09T11:25:32.179Z,95252.89
2019-03-09T11:28:12.500Z,95252.28
2019-03-09T11:30:42.046Z,95239.45
2019-03-09T11:33:11.605Z,95241.06
2019-03-09T11:35:41.120Z,95231.20
2019-03-09T11:38:10.656Z,95228.02
2019-03-09T11:40:40.130Z,95215.22
2019-03-09T11:43:09.649Z,95206.94
2019-03-09T11:45:39.190Z,95204.77
2019-03-09T11:48:08.767Z,95195.97
2019-03-09T11:50:38.318Z,95192.56
2019-03-09T11:53:07.796Z,95183.95
2019-03-09T11:55:37.349Z,95184.59
2019-03-09T11:58:06.863Z,95174.46
2019-03-09T12:00:37.291Z,95175.92
2019-03-09T12:03:06.835Z,95171.67
2019-03-09T12:05:36.370Z,95162.69
2019-03-09T12:08:05.908Z,95165.39
2019-03-09T12:10:35.437Z,95161.21
2019-03-09T12:13:04.987Z,95158.37
2019-03-09T12:15:34.544Z,95154.91
2019-03-09T12:18:04.070Z,95148.02
2019-03-09T12:20:33.571Z,95154.23
2019-03-09T12:23:19.415Z,95144.52
2019-03-09T12:25:48.957Z,95138.20
2019-03-09T12:28:18.447Z,95138.74
2019-03-09T12:30:47.972Z,95137.00
2019-03-09T12:33:17.502Z,95138.33
2019-03-09T12:35:47.016Z,95123.65
2019-03-09T12:38:16.577Z,95121.59
2019-03-09T12:40:46.111Z,95136.59
2019-03-09T12:43:15.629Z,95133.69
2019-03-09T12:45:45.098Z,95132.32
2019-03-09T12:48:14.605Z,95129.09
2019-03-09T12:50:44.136Z,95131.48
2019-03-09T12:53:14.305Z,95128.49
2019-03-09T12:55:43.775Z,95131.39
2019-03-09T12:58:13.290Z,95120.30
2019-03-09T13:00:42.774Z,95123.73
2019-03-09T13:03:12.416Z,95111.55
2019-03-09T13:05:42.012Z,95110.14
2019-03-09T13:08:11.504Z,95109.34
2019-03-09T13:10:41.081Z,95105.56
2019-03-09T13:13:10.588Z,95101.12
2019-03-09T13:15:40.127Z,95105.56
2019-03-09T13:18:09.689Z,95102.08
2019-03-09T13:20:39.207Z,95100.22
2019-03-09T13:23:08.747Z,95096.03
2019-03-09T13:25:38.809Z,95086.00
2019-03-09T13:28:08.494Z,95081.64
2019-03-09T13:30:37.995Z,95086.28
2019-03-09T13:33:07.561Z,95082.73
2019-03-09T13:35:37.068Z,95086.48
2019-03-09T13:38:06.573Z,95075.36
2019-03-09T13:40:36.023Z,95073.95
2019-03-09T13:43:05.565Z,95077.66
2019-03-09T13:45:35.108Z,95074.19
2019-03-09T13:48:04.634Z,95077.33
2019-03-09T13:50:34.107Z,95072.70
2019-03-09T13:53:03.636Z,95073.34
2019-03-09T13:55:33.103Z,95074.92
2019-03-09T13:58:02.654Z,95076.37
2019-03-09T14:00:40.145Z,95063.03
2019-03-09T14:03:03.710Z,95051.35
2019-03-09T14:05:33.323Z,95055.49
2019-03-09T14:08:02.824Z,95042.48
2019-03-09T14:10:32.497Z,95041.00
2019-03-09T14:13:02.042Z,95046.59
2019-03-09T14:15:31.609Z,95032.97
2019-03-09T14:18:01.125Z,95036.20
2019-03-09T14:20:30.646Z,95034.59
2019-03-09T14:23:00.243Z,95038.29
2019-03-09T14:25:29.754Z,95034.59
2019-03-09T14:27:59.251Z,95024.72
2019-03-09T14:30:28.804Z,95028.74
2019-03-09T14:32:58.256Z,95025.56
2019-03-09T14:35:27.798Z,95016.45
2019-03-09T14:37:57.364Z,95016.14
2019-03-09T14:40:26.813Z,95014.60
2019-03-09T14:42:56.359Z,95008.28
2019-03-09T14:45:25.900Z,95012.42
2019-03-09T14:47:55.413Z,95016.14
2019-03-09T14:50:24.879Z,95019.32
2019-03-09T14:52:54.377Z,95017.42
2019-03-09T14:55:23.907Z,95006.70
2019-03-09T14:57:53.411Z,95003.68
2019-03-09T15:00:22.911Z,94999.84
2019-03-09T15:02:52.483Z,95012.52
2019-03-09T15:05:22.053Z,94998.14
2019-03-09T15:07:51.719Z,94988.08
2019-03-09T15:10:21.262Z,94984.48
2019-03-09T15:12:50.951Z,94980.26
2019-03-09T15:15:20.582Z,94984.72
2019-03-09T15:17:50.039Z,94989.31
2019-03-09T15:20:19.568Z,94988.60
2019-03-09T15:22:49.033Z,94982.52
2019-03-09T15:25:18.632Z,94984.05
2019-03-09T15:27:48.507Z,94988.55
2019-03-09T15:30:18.248Z,94981.55
2019-03-09T15:32:47.770Z,94983.87
2019-03-09T15:35:17.280Z,94981.16
2019-03-09T15:37:46.878Z,94979.83
2019-03-09T15:40:17.767Z,94983.44
2019-03-09T15:42:47.286Z,94984.71
2019-03-09T15:45:17.023Z,94983.55
2019-03-09T15:47:46.763Z,94980.16
2019-03-09T15:50:16.703Z,94990.83
2019-03-09T15:52:46.252Z,94989.38
2019-03-09T15:55:16.149Z,94979.22
2019-03-09T15:57:48.168Z,94984.81
2019-03-09T16:00:18.972Z,94988.95
2019-03-09T16:02:48.577Z,94992.17
2019-03-09T16:05:18.313Z,94990.32
2019-03-09T16:07:47.825Z,94990.84
2019-03-09T16:10:17.467Z,94991.59
2019-03-09T16:12:46.954Z,94999.79
2019-03-09T16:15:16.888Z,94996.73
2019-03-09T16:17:46.454Z,94994.78
2019-03-09T16:20:16.739Z,94996.01
2019-03-09T16:22:46.285Z,94998.59
2019-03-09T16:25:16.048Z,94996.70
2019-03-09T16:27:45.553Z,95000.39
2019-03-09T16:30:18.685Z,95005.11
2019-03-09T16:32:48.317Z,95003.35
2019-03-09T16:35:17.886Z,95010.77
2019-03-09T16:37:47.436Z,95006.40
2019-03-09T16:40:17.021Z,95005.52
2019-03-09T16:42:46.616Z,95011.30
2019-03-09T16:45:16.420Z,95013.92
2019-03-09T16:47:46.010Z,95021.02
2019-03-09T16:50:15.659Z,95014.67
2019-03-09T16:52:45.639Z,95020.16
2019-03-09T16:55:15.241Z,95019.84
2019-03-09T16:57:44.746Z,95020.83
2019-03-09T17:00:16.780Z,95023.25
2019-03-09T17:02:46.387Z,95028.22
2019-03-09T17:05:16.047Z,95029.83
2019-03-09T17:07:45.558Z,95037.27
2019-03-09T17:10:15.389Z,95035.12
2019-03-09T17:12:44.989Z,95034.44
2019-03-09T17:15:15.125Z,95044.10
2019-03-09T17:17:45.148Z,95047.16
2019-03-09T17:20:15.224Z,95046.55
2019-03-09T17:22:44.849Z,95051.70
2019-03-09T17:25:15.065Z,95061.87
2019-03-09T17:27:44.991Z,95057.69
2019-03-09T17:30:16.300Z,95057.56
2019-03-09T17:32:45.801Z,95061.31
2019-03-09T17:35:15.333Z,95071.59
2019-03-09T17:37:44.967Z,95119.81
2019-03-09T17:40:14.615Z,95156.17
2019-03-09T17:42:44.094Z,95131.63
2019-03-09T17:45:16.169Z,95136.95
2019-03-09T17:47:45.691Z,95149.14
2019-03-09T17:50:15.400Z,95153.29
2019-03-09T17:52:45.051Z,95140.42
2019-03-09T17:55:14.569Z,95145.28
2019-03-09T17:57:44.151Z,95150.44
2019-03-09T18:00:16.302Z,95150.50
2019-03-09T18:02:45.867Z,95163.50
2019-03-09T18:05:15.422Z,95162.61
2019-03-09T18:07:44.928Z,95168.11
2019-03-09T18:10:35.063Z,95166.52
2019-03-09T18:13:04.638Z,95163.77
2019-03-09T18:15:34.146Z,95161.06
2019-03-09T18:18:03.765Z,95160.16
2019-03-09T18:20:33.271Z,95166.67
2019-03-09T18:23:02.860Z,95170.22
2019-03-09T18:25:32.368Z,95164.75
2019-03-09T18:28:01.945Z,95163.73
2019-03-09T18:30:31.462Z,95165.45
2019-03-09T18:33:01.022Z,95167.69
2019-03-09T18:35:30.602Z,95161.61
2019-03-09T18:38:00.202Z,95155.33
2019-03-09T18:40:29.737Z,95155.02
2019-03-09T18:42:59.249Z,95151.24
2019-03-09T18:45:28.779Z,95150.02
2019-03-09T18:47:58.334Z,95154.28
2019-03-09T18:50:27.843Z,95150.02
2019-03-09T18:52:57.346Z,95153.02
2019-03-09T18:55:26.888Z,95158.77
2019-03-09T18:57:56.399Z,95163.19
2019-03-09T19:00:25.907Z,95154.36
2019-03-09T19:02:55.496Z,95161.25
2019-03-09T19:05:26.281Z,95161.05
2019-03-09T19:07:55.800Z,95157.05
2019-03-09T19:10:25.326Z,95159.58
2019-03-09T19:12:54.771Z,95151.78
2019-03-09T19:15:24.258Z,95166.06
2019-03-09T19:17:53.861Z,95167.29
2019-03-09T19:20:23.495Z,95170.63
2019-03-09T19:22:53.019Z,95164.41
2019-03-09T19:25:22.662Z,95160.75
2019-03-09T19:27:52.221Z,95161.36
2019-03-09T19:30:21.685Z,95155.52
2019-03-09T19:32:59.813Z,95158.37
2019-03-09T19:35:22.417Z,95164.91
2019-03-09T19:37:51.874Z,95162.20
2019-03-09T19:40:21.403Z,95160.97
2019-03-09T19:42:50.992Z,95165.22
2019-03-09T19:45:20.479Z,95173.77
2019-03-09T19:47:50.039Z,95175.08
2019-03-09T19:50:19.623Z,95173.73
2019-03-09T19:52:49.237Z,95172.72
2019-03-09T19:55:18.883Z,95174.14
2019-03-09T19:57:48.381Z,95173.84
2019-03-09T20:00:17.999Z,95166.61
2019-03-09T20:02:47.509Z,95164.98
2019-03-09T20:05:17.103Z,95163.05
2019-03-09T20:07:46.596Z,95161.23
2019-03-09T20:10:16.263Z,95162.34
2019-03-09T20:12:45.760Z,95151.80
2019-03-09T20:15:15.756Z,95148.73
2019-03-09T20:17:45.941Z,95158.25
2019-03-09T20:20:15.953Z,95153.63
2019-03-09T20:22:45.518Z,95156.00
2019-03-09T20:25:15.035Z,95149.38
2019-03-09T20:27:44.602Z,95149.55
2019-03-09T20:30:14.986Z,95153.78
2019-03-09T20:32:44.514Z,95147.10
2019-03-09T20:35:14.137Z,95139.33
2019-03-09T20:37:43.721Z,95141.86
2019-03-09T20:40:13.658Z,95148.53
2019-03-09T20:42:43.179Z,95146.72
2019-03-09T20:45:14.662Z,95146.29
2019-03-09T20:47:44.453Z,95149.14
2019-03-09T20:50:14.941Z,95141.74
2019-03-09T20:52:44.506Z,95143.47
2019-03-09T20:55:14.008Z,95140.33
2019-03-09T20:57:43.528Z,95135.37
2019-03-09T21:00:15.133Z,95145.90
2019-03-09T21:02:44.643Z,95144.05
2019-03-09T21:05:14.425Z,95135.95
2019-03-09T21:07:44.014Z,95131.42
2019-03-09T21:10:14.779Z,95132.73
2019-03-09T21:13:04.983Z,95125.01
2019-03-09T21:15:34.475Z,95128.25
2019-03-09T21:18:03.999Z,95123.59
2019-03-09T21:20:33.504Z,95128.66
2019-03-09T21:23:03.171Z,95123.39
2019-03-09T21:25:32.779Z,95129.97
2019-03-09T21:28:02.261Z,95129.16
2019-03-09T21:30:31.743Z,95127.03
2019-03-09T21:33:01.224Z,95129.36
2019-03-09T21:35:30.757Z,95125.24
2019-03-09T21:38:00.406Z,95121.39
2019-03-09T21:40:30.017Z,95116.56
2019-03-09T21:42:59.569Z,95111.97
2019-03-09T21:45:29.160Z,95107.92
2019-03-09T21:47:58.663Z,95106.84
2019-03-09T21:50:28.173Z,95106.41
2019-03-09T21:52:57.666Z,95103.47
2019-03-09T21:55:27.159Z,95097.33
2019-03-09T21:57:56.680Z,95098.71
2019-03-09T22:00:26.306Z,95098.13
2019-03-09T22:02:55.794Z,95090.51
2019-03-09T22:05:25.340Z,95097.73
2019-03-09T22:07:55.846Z,95097.12
2019-03-09T22:10:25.568Z,95103.29
2019-03-09T22:12:55.082Z,95104.61
2019-03-09T22:15:24.598Z,95104.23
2019-03-09T22:17:54.063Z,95101.82
2019-03-09T22:20:23.572Z,95096.83
2019-03-09T22:22:53.057Z,95096.83
2019-03-09T22:25:22.544Z,95092.18
2019-03-09T22:27:52.100Z,95094.00
2019-03-09T22:30:21.639Z,95086.23
2019-03-09T22:32:51.191Z,95084.59
2019-03-09T22:35:20.654Z,95085.68
2019-03-09T22:37:50.113Z,95085.27
2019-03-09T22:40:19.651Z,95094.08
2019-03-09T22:42:49.085Z,95092.03
2019-03-09T22:45:18.574Z,95094.28
2019-03-09T22:47:48.096Z,95089.22
2019-03-09T22:50:17.728Z,95088.92
2019-03-09T22:52:47.195Z,95091.68
2019-03-09T22:55:16.791Z,95093.70
2019-03-09T22:57:46.290Z,95091.47
2019-03-09T23:00:17.779Z,95093.92
2019-03-09T23:02:47.291Z,95094.51
2019-03-09T23:05:17.105Z,95088.28
2019-03-09T23:07:46.576Z,95093.13
2019-03-09T23:10:16.908Z,95104.36
2019-03-09T23:12:46.394Z,95098.39
2019-03-09T23:15:16.397Z,95095.77
2019-03-09T23:17:46.141Z,95098.19
2019-03-09T23:20:16.940Z,95096.57
2019-03-09T23:22:46.443Z,95092.14
2019-03-09T23:25:16.683Z,95096.47
2019-03-09T23:27:46.198Z,95091.33
2019-03-09T23:30:16.890Z,95079.98
2019-03-09T23:32:46.432Z,95078.77
2019-03-09T23:35:16.438Z,95080.08
2019-03-09T23:37:46.326Z,95084.43
2019-03-09T23:40:16.516Z,95091.71
2019-03-09T23:42:46.015Z,95088.07
2019-03-09T23:45:16.470Z,95078.66
2019-03-09T23:47:46.118Z,95067.33
2019-03-09T23:50:16.182Z,95073.60
2019-03-09T23:52:46.084Z,95082.41
2019-03-09T23:55:22.442Z,95080.48
2019-03-09T23:57:48.416Z,95073.60
